createdAt,value
2023-02-11T00:00:35.734Z,24.13
2023-02-11T00:03:02.336Z,24.52
2023-02-11T00:05:28.863Z,24.63
2023-02-11T00:07:55.432Z,24.23
2023-02-11T00:10:22.008Z,24.05
2023-02-11T00:12:48.537Z,24.02
2023-02-11T00:15:15.192Z,23.85
2023-02-11T00:17:41.725Z,23.83
2023-02-11T00:20:09.154Z,23.17
2023-02-11T00:22:35.719Z,25.52
2023-02-11T00:25:02.460Z,23.05
2023-02-11T00:27:28.987Z,24.13
2023-02-11T00:29:55.634Z,23.17
2023-02-11T00:32:22.124Z,23.27
2023-02-11T00:34:52.280Z,24.55
2023-02-11T00:37:18.801Z,23.55
2023-02-11T00:39:45.408Z,21.77
2023-02-11T00:42:14.672Z,23.33
2023-02-11T00:44:41.293Z,21.58
2023-02-11T00:47:08.195Z,24.45
2023-02-11T00:49:34.885Z,22.75
2023-02-11T00:52:01.593Z,21.88
2023-02-11T00:54:30.001Z,22.60
2023-02-11T00:56:56.627Z,22.88
2023-02-11T00:59:23.211Z,23.30
2023-02-11T01:01:49.837Z,22.27
2023-02-11T01:04:16.411Z,22.17
2023-02-11T01:06:43.229Z,22.67
2023-02-11T01:09:09.975Z,22.55
2023-02-11T01:11:36.661Z,20.95
2023-02-11T01:14:03.265Z,22.38
2023-02-11T01:16:29.887Z,21.33
2023-02-11T01:18:56.474Z,21.77
2023-02-11T01:21:23.070Z,21.67
2023-02-11T01:23:49.526Z,22.77
2023-02-11T01:26:16.251Z,21.42
2023-02-11T01:28:42.802Z,21.77
2023-02-11T01:31:09.450Z,21.02
2023-02-11T01:33:36.033Z,20.92
2023-02-11T01:36:04.185Z,21.10
2023-02-11T01:38:31.574Z,21.58
2023-02-11T01:41:07.070Z,21.08
2023-02-11T01:43:36.933Z,18.77
2023-02-11T01:46:12.514Z,19.70
2023-02-11T01:48:44.640Z,20.77
2023-02-11T01:51:25.829Z,19.27
2023-02-11T01:54:12.033Z,21.42
2023-02-11T01:57:01.978Z,20.38
2023-02-11T01:59:34.960Z,21.17
2023-02-11T02:02:07.281Z,20.20
2023-02-11T02:04:40.235Z,19.55
2023-02-11T02:07:11.556Z,19.52
2023-02-11T02:09:42.677Z,20.30
2023-02-11T02:12:09.555Z,19.65
2023-02-11T02:14:40.652Z,19.02
2023-02-11T02:17:09.372Z,18.92
2023-02-11T02:19:54.260Z,19.58
2023-02-11T02:22:26.670Z,20.05
2023-02-11T02:25:01.089Z,20.55
2023-02-11T02:27:42.776Z,19.77
2023-02-11T02:30:48.420Z,19.65
2023-02-11T02:33:23.440Z,20.48
2023-02-11T02:36:31.740Z,19.45
2023-02-11T02:39:10.942Z,21.02
2023-02-11T02:41:37.921Z,20.65
2023-02-11T02:44:04.881Z,18.50
2023-02-11T02:46:33.453Z,19.27
2023-02-11T02:49:00.561Z,19.35
2023-02-11T02:51:36.181Z,20.17
2023-02-11T02:54:17.903Z,21.50
2023-02-11T02:56:55.831Z,20.08
2023-02-11T02:59:25.239Z,20.80
2023-02-11T03:02:04.160Z,21.45
2023-02-11T03:04:49.519Z,20.15
2023-02-11T03:07:38.978Z,21.10
2023-02-11T03:10:28.470Z,21.92
2023-02-11T03:12:55.352Z,21.33
2023-02-11T03:15:23.589Z,21.30
2023-02-11T03:17:52.117Z,21.27
2023-02-11T03:20:20.230Z,21.95
2023-02-11T03:22:50.548Z,20.73
2023-02-11T03:25:17.313Z,21.35
2023-02-11T03:27:47.863Z,21.88
2023-02-11T03:30:26.424Z,20.90
2023-02-11T03:32:58.373Z,20.40
2023-02-11T03:35:29.366Z,21.50
2023-02-11T03:40:36.223Z,21.30
2023-02-11T03:43:17.306Z,21.00
2023-02-11T03:48:21.157Z,20.58
2023-02-11T03:50:48.707Z,21.38
2023-02-11T03:53:16.123Z,21.25
2023-02-11T03:55:43.852Z,23.63
2023-02-11T03:58:10.514Z,21.92
2023-02-11T04:00:39.785Z,23.25
2023-02-11T04:03:07.314Z,22.08
2023-02-11T04:05:33.948Z,23.10
2023-02-11T04:08:00.680Z,24.20
2023-02-11T04:10:27.203Z,25.13
2023-02-11T04:12:53.814Z,23.65
2023-02-11T04:15:20.348Z,24.20
2023-02-11T04:17:46.939Z,24.80
2023-02-11T04:20:13.495Z,25.02
2023-02-11T04:22:40.495Z,23.83
2023-02-11T04:25:07.463Z,26.10
2023-02-11T04:27:34.170Z,25.58
2023-02-11T04:30:00.697Z,26.33
2023-02-11T04:32:27.221Z,27.60
2023-02-11T04:34:54.948Z,27.30
2023-02-11T04:37:21.542Z,27.50
2023-02-11T04:39:48.050Z,28.00
2023-02-11T04:42:14.602Z,29.52
2023-02-11T04:44:41.149Z,29.27
2023-02-11T04:47:07.622Z,27.17
2023-02-11T04:49:34.212Z,28.30
2023-02-11T04:52:00.676Z,28.90
2023-02-11T04:54:27.261Z,29.63
2023-02-11T04:56:53.779Z,29.10
2023-02-11T04:59:20.244Z,30.58
2023-02-11T05:04:20.879Z,28.83
2023-02-11T05:06:47.478Z,31.30
2023-02-11T05:09:14.444Z,33.65
2023-02-11T05:11:41.168Z,29.20
2023-02-11T05:14:07.917Z,33.90
2023-02-11T05:16:34.924Z,32.17
2023-02-11T05:19:01.582Z,30.52
2023-02-11T05:21:28.200Z,30.33
2023-02-11T05:23:54.653Z,29.98
2023-02-11T05:26:21.266Z,29.92
2023-02-11T05:28:47.818Z,30.35
2023-02-11T05:31:14.893Z,29.17
2023-02-11T05:33:41.868Z,29.02
2023-02-11T05:36:10.561Z,32.78
2023-02-11T05:38:38.766Z,29.50
2023-02-11T05:41:06.743Z,30.65
2023-02-11T05:43:35.358Z,29.42
2023-02-11T05:46:02.642Z,30.50
2023-02-11T05:48:29.496Z,30.38
2023-02-11T05:50:56.052Z,30.27
2023-02-11T05:53:22.774Z,30.67
2023-02-11T05:55:49.646Z,28.92
2023-02-11T05:58:16.469Z,31.77
2023-02-11T06:00:43.022Z,33.15
2023-02-11T06:03:09.617Z,33.42
2023-02-11T06:05:36.182Z,31.50
2023-02-11T06:08:02.676Z,33.50
2023-02-11T06:10:29.303Z,34.33
2023-02-11T06:12:55.809Z,32.35
2023-02-11T06:15:22.472Z,31.30
2023-02-11T06:17:48.966Z,34.85
2023-02-11T06:20:15.573Z,35.15
2023-02-11T06:22:42.123Z,33.40
2023-02-11T06:25:08.808Z,33.38
2023-02-11T06:27:35.379Z,34.75
2023-02-11T06:30:01.969Z,32.20
2023-02-11T06:32:42.712Z,35.95
2023-02-11T06:35:12.060Z,33.88
2023-02-11T06:37:39.514Z,34.70
2023-02-11T06:40:06.558Z,34.05
2023-02-11T06:42:33.298Z,32.75
2023-02-11T06:44:59.767Z,35.47
2023-02-11T06:47:26.321Z,36.08
2023-02-11T06:49:52.889Z,33.75
2023-02-11T06:52:19.505Z,35.17
2023-02-11T06:54:47.184Z,35.78
2023-02-11T06:57:13.733Z,34.83
2023-02-11T06:59:40.393Z,36.15
2023-02-11T07:02:07.021Z,35.53
2023-02-11T07:04:33.600Z,37.47
2023-02-11T07:07:04.205Z,37.65
2023-02-11T07:10:08.941Z,37.47
2023-02-11T07:12:42.120Z,35.67
2023-02-11T07:15:08.775Z,36.80
2023-02-11T07:17:36.094Z,36.45
2023-02-11T07:20:02.823Z,37.17
2023-02-11T07:22:29.646Z,38.97
2023-02-11T07:24:56.426Z,40.28
2023-02-11T07:27:23.046Z,40.55
2023-02-11T07:29:49.585Z,39.28
2023-02-11T07:32:16.234Z,37.67
2023-02-11T07:34:45.033Z,38.42
2023-02-11T07:37:13.139Z,40.72
2023-02-11T07:39:47.266Z,39.47
2023-02-11T07:42:17.807Z,39.97
2023-02-11T07:44:50.060Z,37.90
2023-02-11T07:47:19.497Z,42.08
2023-02-11T07:49:47.761Z,44.75
2023-02-11T07:52:15.697Z,40.95
2023-02-11T07:54:47.428Z,41.00
2023-02-11T07:57:17.166Z,41.88
2023-02-11T07:59:46.608Z,40.53
2023-02-11T08:02:28.314Z,41.55
2023-02-11T08:05:08.283Z,40.58
2023-02-11T08:07:39.850Z,39.67
2023-02-11T08:10:09.663Z,40.45
2023-02-11T08:12:54.952Z,39.67
2023-02-11T08:15:30.736Z,36.63
2023-02-11T08:18:19.330Z,40.15
2023-02-11T08:23:25.453Z,38.45
2023-02-11T08:26:23.108Z,39.67
2023-02-11T08:28:59.825Z,39.25
2023-02-11T08:31:42.669Z,39.45
2023-02-11T08:34:19.839Z,39.17
2023-02-11T08:39:42.192Z,43.42
2023-02-11T08:42:19.441Z,40.83
2023-02-11T08:44:53.061Z,38.92
2023-02-11T08:47:34.103Z,39.88
2023-02-11T08:53:15.355Z,39.05
2023-02-11T08:55:52.427Z,39.15
2023-02-11T08:58:20.157Z,38.17
2023-02-11T09:00:56.658Z,41.63
2023-02-11T09:03:27.928Z,41.38
2023-02-11T09:05:57.242Z,38.13
2023-02-11T09:08:25.980Z,41.33
2023-02-11T09:11:01.260Z,39.28
2023-02-11T09:13:32.284Z,39.25
2023-02-11T09:16:01.231Z,40.72
2023-02-11T09:18:40.243Z,41.17
2023-02-11T09:21:24.998Z,41.53
2023-02-11T09:23:54.090Z,39.90
2023-02-11T09:26:36.094Z,38.92
2023-02-11T09:29:08.712Z,36.78
2023-02-11T09:31:43.692Z,40.47
2023-02-11T09:34:20.232Z,41.03
2023-02-11T09:36:50.984Z,37.08
2023-02-11T09:39:31.064Z,37.95
2023-02-11T09:42:52.408Z,38.67
2023-02-11T09:45:27.932Z,40.38
2023-02-11T09:48:16.767Z,40.30
2023-02-11T09:54:04.475Z,39.25
2023-02-11T09:56:35.812Z,39.42
2023-02-11T09:59:05.730Z,39.08
2023-02-11T10:01:43.671Z,37.83
2023-02-11T10:04:17.171Z,38.58
2023-02-11T10:07:23.196Z,39.75
2023-02-11T10:10:45.719Z,39.33
2023-02-11T10:13:35.122Z,38.97
2023-02-11T10:16:30.832Z,37.33
2023-02-11T10:19:40.497Z,39.95
2023-02-11T10:22:23.735Z,38.67
2023-02-11T10:24:59.280Z,36.72
2023-02-11T10:27:41.626Z,39.83
2023-02-11T10:30:34.019Z,38.15
2023-02-11T10:33:28.516Z,38.75
2023-02-11T10:36:00.306Z,40.60
2023-02-11T10:38:29.348Z,37.45
2023-02-11T10:41:04.356Z,38.10
2023-02-11T10:43:32.659Z,38.10
2023-02-11T10:46:05.334Z,38.22
2023-02-11T10:48:55.779Z,37.03
2023-02-11T10:51:37.386Z,38.00
2023-02-11T10:57:24.258Z,37.97
2023-02-11T11:00:07.081Z,36.80
2023-02-11T11:02:44.356Z,38.45
2023-02-11T11:05:34.343Z,39.15
2023-02-11T11:08:16.149Z,38.33
2023-02-11T11:11:06.407Z,37.95
2023-02-11T11:13:48.188Z,37.88
2023-02-11T11:16:30.795Z,37.30
2023-02-11T11:19:08.722Z,40.70
2023-02-11T11:21:52.996Z,37.92
2023-02-11T11:25:04.945Z,37.60
2023-02-11T11:27:33.073Z,38.20
2023-02-11T11:30:09.486Z,38.92
2023-02-11T11:32:45.162Z,37.90
2023-02-11T11:35:28.930Z,38.00
2023-02-11T11:38:07.028Z,39.67
2023-02-11T11:40:41.427Z,40.97
2023-02-11T11:43:15.563Z,41.42
2023-02-11T11:46:03.266Z,43.95
2023-02-11T11:48:45.414Z,39.97
2023-02-11T11:51:15.689Z,41.05
2023-02-11T11:54:07.362Z,41.53
2023-02-11T11:56:45.709Z,42.85
2023-02-11T11:59:16.150Z,41.10
2023-02-11T12:02:24.738Z,42.60
2023-02-11T12:05:20.947Z,39.90
2023-02-11T12:08:17.601Z,41.53
2023-02-11T12:11:10.530Z,40.63
2023-02-11T12:14:15.689Z,44.90
2023-02-11T12:17:05.093Z,41.00
2023-02-11T12:20:23.183Z,43.22
2023-02-11T12:23:31.531Z,43.55
2023-02-11T12:26:27.305Z,41.28
2023-02-11T12:29:14.771Z,44.30
2023-02-11T12:32:11.970Z,40.45
2023-02-11T12:34:54.926Z,42.95
2023-02-11T12:38:02.013Z,41.90
2023-02-11T12:40:47.915Z,44.97
2023-02-11T12:43:28.052Z,46.25
2023-02-11T12:46:21.638Z,43.80
2023-02-11T12:49:22.710Z,45.35
2023-02-11T12:52:09.716Z,44.90
2023-02-11T12:55:09.256Z,48.00
2023-02-11T12:57:51.408Z,43.70
2023-02-11T13:00:32.597Z,44.53
2023-02-11T13:03:40.112Z,45.72
2023-02-11T13:06:17.520Z,44.30
2023-02-11T13:09:01.018Z,44.13
2023-02-11T13:11:46.516Z,46.15
2023-02-11T13:14:44.098Z,45.67
2023-02-11T13:17:24.248Z,45.05
2023-02-11T13:19:59.127Z,43.55
2023-02-11T13:22:40.781Z,44.53
2023-02-11T13:25:46.205Z,44.83
2023-02-11T13:29:02.774Z,46.10
2023-02-11T13:34:27.453Z,44.67
2023-02-11T13:40:02.940Z,43.80
2023-02-11T13:42:45.354Z,46.67
2023-02-11T13:45:37.045Z,42.25
2023-02-11T13:51:23.654Z,42.33
2023-02-11T13:53:56.068Z,44.45
2023-02-11T13:56:36.686Z,47.08
2023-02-11T13:59:08.254Z,45.63
2023-02-11T14:02:13.434Z,46.45
2023-02-11T14:05:40.268Z,44.20
2023-02-11T14:08:37.574Z,44.70
2023-02-11T14:11:49.563Z,43.58
2023-02-11T14:14:29.091Z,41.20
2023-02-11T14:17:17.639Z,43.25
2023-02-11T14:19:57.165Z,42.45
2023-02-11T14:25:28.979Z,41.35
2023-02-11T14:28:07.882Z,40.40
2023-02-11T14:31:00.059Z,41.03
2023-02-11T14:34:15.051Z,36.90
2023-02-11T14:37:07.830Z,37.08
2023-02-11T14:40:19.865Z,36.78
2023-02-11T14:42:56.846Z,37.28
2023-02-11T14:45:35.123Z,36.75
2023-02-11T14:48:19.456Z,36.55
2023-02-11T14:50:54.167Z,35.85
2023-02-11T14:53:25.828Z,37.42
2023-02-11T14:56:00.016Z,36.67
2023-02-11T15:04:34.137Z,35.10
2023-02-11T15:07:28.601Z,35.85
2023-02-11T15:10:04.817Z,36.20
2023-02-11T15:12:32.118Z,32.58
2023-02-11T15:15:12.367Z,32.55
2023-02-11T15:17:44.023Z,35.25
2023-02-11T15:20:27.711Z,35.15
2023-02-11T15:23:03.968Z,33.03
2023-02-11T15:25:34.153Z,32.95
2023-02-11T15:28:22.730Z,34.90
2023-02-11T15:31:08.295Z,33.25
2023-02-11T15:34:02.269Z,37.72
2023-02-11T15:36:36.242Z,34.03
2023-02-11T15:39:33.950Z,33.67
2023-02-11T15:42:40.750Z,32.38
2023-02-11T15:45:15.565Z,31.02
2023-02-11T15:47:55.638Z,35.28
2023-02-11T15:50:31.551Z,31.45
2023-02-11T15:53:01.860Z,32.20
2023-02-11T15:55:31.387Z,32.30
2023-02-11T15:58:05.531Z,32.45
2023-02-11T16:00:50.432Z,33.45
2023-02-11T16:03:33.105Z,30.70
2023-02-11T16:06:48.489Z,33.03
2023-02-11T16:09:51.094Z,31.95
2023-02-11T16:12:27.773Z,32.72
2023-02-11T16:15:00.107Z,32.67
2023-02-11T16:17:30.887Z,33.53
2023-02-11T16:20:02.138Z,33.90
2023-02-11T16:22:36.600Z,32.13
2023-02-11T16:25:08.038Z,32.50
2023-02-11T16:27:43.266Z,33.55
2023-02-11T16:30:49.177Z,33.08
2023-02-11T16:33:29.765Z,32.88
2023-02-11T16:36:04.225Z,33.30
2023-02-11T16:38:37.069Z,35.75
2023-02-11T16:41:11.944Z,34.80
2023-02-11T16:43:41.261Z,34.83
2023-02-11T16:46:25.643Z,36.50
2023-02-11T16:49:18.316Z,34.00
2023-02-11T16:52:05.723Z,33.38
2023-02-11T16:54:36.750Z,34.22
2023-02-11T16:57:28.107Z,35.20
2023-02-11T17:00:07.611Z,35.47
2023-02-11T17:02:38.294Z,33.53
2023-02-11T17:05:08.299Z,34.88
2023-02-11T17:07:43.434Z,36.33
2023-02-11T17:10:16.899Z,35.70
2023-02-11T17:15:31.931Z,36.17
2023-02-11T17:18:06.010Z,33.38
2023-02-11T17:23:20.651Z,36.75
2023-02-11T17:25:57.302Z,33.00
2023-02-11T17:28:25.055Z,34.17
2023-02-11T17:30:52.599Z,36.17
2023-02-11T17:33:24.643Z,36.80
2023-02-11T17:35:59.017Z,35.13
2023-02-11T17:38:32.359Z,34.13
2023-02-11T17:41:07.209Z,33.15
2023-02-11T17:43:39.051Z,32.95
2023-02-11T17:46:09.828Z,34.42
2023-02-11T17:48:44.890Z,34.58
2023-02-11T17:51:30.430Z,34.45
2023-02-11T17:54:01.950Z,34.35
2023-02-11T17:56:31.909Z,38.33
2023-02-11T17:59:00.901Z,35.30
2023-02-11T18:01:32.214Z,36.00
2023-02-11T18:04:08.916Z,35.40
2023-02-11T18:06:39.159Z,35.50
2023-02-11T18:09:08.098Z,35.03
2023-02-11T18:11:42.394Z,34.88
2023-02-11T18:14:14.202Z,34.17
2023-02-11T18:16:53.937Z,35.92
2023-02-11T18:19:33.330Z,36.28
2023-02-11T18:22:04.459Z,35.60
2023-02-11T18:24:34.883Z,37.30
2023-02-11T18:27:04.277Z,36.63
2023-02-11T18:32:20.718Z,35.03
2023-02-11T18:34:58.695Z,35.75
2023-02-11T18:37:27.146Z,35.85
2023-02-11T18:39:56.348Z,34.92
2023-02-11T18:42:24.866Z,35.63
2023-02-11T18:44:55.267Z,36.67
2023-02-11T18:47:28.271Z,35.83
2023-02-11T18:49:59.207Z,36.28
2023-02-11T18:52:28.572Z,35.67
2023-02-11T18:54:56.651Z,35.55
2023-02-11T18:57:28.738Z,36.35
2023-02-11T19:00:00.991Z,34.95
2023-02-11T19:02:42.519Z,38.58
2023-02-11T19:05:13.068Z,35.45
2023-02-11T19:07:43.121Z,36.97
2023-02-11T19:10:14.486Z,37.47
2023-02-11T19:12:46.373Z,38.05
2023-02-11T19:15:19.182Z,37.72
2023-02-11T19:17:49.033Z,37.42
2023-02-11T19:20:27.173Z,38.30
2023-02-11T19:22:55.875Z,38.28
2023-02-11T19:25:26.465Z,38.78
2023-02-11T19:28:05.909Z,39.55
2023-02-11T19:30:40.224Z,38.78
2023-02-11T19:33:14.363Z,40.20
2023-02-11T19:35:51.439Z,40.95
2023-02-11T19:38:24.348Z,38.20
2023-02-11T19:41:02.923Z,38.58
2023-02-11T19:43:30.024Z,40.25
2023-02-11T19:46:06.290Z,41.70
2023-02-11T19:48:36.460Z,43.22
2023-02-11T19:51:13.471Z,40.72
2023-02-11T19:53:45.636Z,41.08
2023-02-11T19:56:20.830Z,43.97
2023-02-11T19:58:52.273Z,40.22
2023-02-11T20:01:23.084Z,42.35
2023-02-11T20:03:54.096Z,42.88
2023-02-11T20:09:17.247Z,42.78
2023-02-11T20:14:26.200Z,41.65
2023-02-11T20:16:55.975Z,44.42
2023-02-11T20:19:24.087Z,45.03
2023-02-11T20:24:30.781Z,45.13
2023-02-11T20:29:58.188Z,44.05
2023-02-11T20:32:35.298Z,45.22
2023-02-11T20:35:02.722Z,45.50
2023-02-11T20:37:32.227Z,47.72
2023-02-11T20:40:10.328Z,43.60
2023-02-11T20:42:59.585Z,44.40
2023-02-11T20:45:28.813Z,43.50
2023-02-11T20:47:56.665Z,45.83
2023-02-11T20:50:27.791Z,45.45
2023-02-11T20:52:57.061Z,45.17
2023-02-11T20:55:26.953Z,44.08
2023-02-11T20:58:04.469Z,44.88
2023-02-11T21:00:35.654Z,46.15
2023-02-11T21:03:07.375Z,44.38
2023-02-11T21:05:39.029Z,44.85
2023-02-11T21:08:07.674Z,46.05
2023-02-11T21:10:47.109Z,44.50
2023-02-11T21:13:15.228Z,44.45
2023-02-11T21:15:43.878Z,43.83
2023-02-11T21:18:22.240Z,42.65
2023-02-11T21:20:52.511Z,44.20
2023-02-11T21:23:20.659Z,44.60
2023-02-11T21:25:49.146Z,42.13
2023-02-11T21:28:27.517Z,43.72
2023-02-11T21:31:05.144Z,42.28
2023-02-11T21:33:39.811Z,44.80
2023-02-11T21:36:10.669Z,44.67
2023-02-11T21:38:38.909Z,43.50
2023-02-11T21:41:07.102Z,43.55
2023-02-11T21:43:39.419Z,42.33
2023-02-11T21:46:11.358Z,42.15
2023-02-11T21:48:40.502Z,43.78
2023-02-11T21:51:15.656Z,41.83
2023-02-11T21:56:32.040Z,43.05
2023-02-11T21:59:09.762Z,41.22
2023-02-11T22:01:38.844Z,40.30
2023-02-11T22:04:08.521Z,41.97
2023-02-11T22:06:40.634Z,41.00
2023-02-11T22:09:09.533Z,41.38
2023-02-11T22:11:40.449Z,37.88
2023-02-11T22:14:09.534Z,40.42
2023-02-11T22:16:38.136Z,38.10
2023-02-11T22:19:12.622Z,43.50
2023-02-11T22:21:41.555Z,40.58
2023-02-11T22:24:08.818Z,38.13
2023-02-11T22:26:46.432Z,39.15
2023-02-11T22:29:17.938Z,39.63
2023-02-11T22:31:47.883Z,39.53
2023-02-11T22:34:22.220Z,41.88
2023-02-11T22:36:50.280Z,38.25
2023-02-11T22:39:25.443Z,38.97
2023-02-11T22:41:55.693Z,37.33
2023-02-11T22:46:58.904Z,39.08
2023-02-11T22:49:26.570Z,37.20
2023-02-11T22:51:55.826Z,36.17
2023-02-11T22:54:28.674Z,40.15
2023-02-11T22:56:59.047Z,37.67
2023-02-11T22:59:28.097Z,36.35
2023-02-11T23:01:56.312Z,38.03
2023-02-11T23:04:25.998Z,37.60
2023-02-11T23:09:41.415Z,36.60
2023-02-11T23:12:08.527Z,35.70
2023-02-11T23:14:41.710Z,35.78
2023-02-11T23:17:11.829Z,39.15
2023-02-11T23:19:40.618Z,36.13
2023-02-11T23:22:08.911Z,38.63
2023-02-11T23:24:38.966Z,38.88
2023-02-11T23:27:06.853Z,36.33
2023-02-11T23:29:34.620Z,37.60
2023-02-11T23:32:06.755Z,39.67
2023-02-11T23:34:37.853Z,35.97
2023-02-11T23:37:07.487Z,37.15
2023-02-11T23:39:43.869Z,37.30
2023-02-11T23:42:13.294Z,38.83
2023-02-11T23:44:44.206Z,36.55
2023-02-11T23:47:14.090Z,36.13
2023-02-11T23:49:47.394Z,36.33
2023-02-11T23:52:15.839Z,36.78
2023-02-11T23:54:46.297Z,35.35
2023-02-11T23:57:16.753Z,36.78
2023-02-11T23:59:52.518Z,35.15
